sensor_id;sensor_type;location;lat;lon;timestamp;P1;durP1;ratioP1;P2;durP2;ratioP2
22219;SDS011;11279;48.364;10.904;2022-09-09T00:00:31;5.53;;;2.53;;
22219;SDS011;11279;48.364;10.904;2022-09-09T00:01:37;4.13;;;2.42;;
22219;SDS011;11279;48.364;10.904;2022-09-09T00:03:17;5.32;;;2.35;;
22219;SDS011;11279;48.364;10.904;2022-09-09T00:04:23;5.28;;;2.30;;
22219;SDS011;11279;48.364;10.904;2022-09-09T00:05:31;6.18;;;2.70;;
22219;SDS011;11279;48.364;10.904;2022-09-09T00:06:49;5.25;;;2.58;;
22219;SDS011;11279;48.364;10.904;2022-09-09T00:07:53;8.85;;;2.65;;
22219;SDS011;11279;48.364;10.904;2022-09-09T00:09:04;4.53;;;2.28;;
22219;SDS011;11279;48.364;10.904;2022-09-09T00:10:24;2.85;;;1.90;;
22219;SDS011;11279;48.364;10.904;2022-09-09T00:11:36;5.28;;;2.40;;
22219;SDS011;11279;48.364;10.904;2022-09-09T00:12:48;4.90;;;2.42;;
22219;SDS011;11279;48.364;10.904;2022-09-09T00:13:52;5.25;;;2.55;;
22219;SDS011;11279;48.364;10.904;2022-09-09T00:14:56;4.95;;;2.63;;
22219;SDS011;11279;48.364;10.904;2022-09-09T00:16:34;4.90;;;2.80;;
22219;SDS011;11279;48.364;10.904;2022-09-09T00:18:55;7.18;;;2.88;;
22219;SDS011;11279;48.364;10.904;2022-09-09T00:20:04;7.10;;;3.03;;
22219;SDS011;11279;48.364;10.904;2022-09-09T00:21:13;2.83;;;2.42;;
22219;SDS011;11279;48.364;10.904;2022-09-09T00:22:20;4.10;;;2.47;;
22219;SDS011;11279;48.364;10.904;2022-09-09T00:24:38;3.42;;;2.55;;
22219;SDS011;11279;48.364;10.904;2022-09-09T00:25:54;7.60;;;2.70;;
22219;SDS011;11279;48.364;10.904;2022-09-09T00:27:01;6.78;;;2.88;;
22219;SDS011;11279;48.364;10.904;2022-09-09T00:28:18;5.05;;;2.88;;
22219;SDS011;11279;48.364;10.904;2022-09-09T00:30:23;4.87;;;2.57;;
22219;SDS011;11279;48.364;10.904;2022-09-09T00:31:26;5.32;;;2.88;;
22219;SDS011;11279;48.364;10.904;2022-09-09T00:32:29;4.90;;;2.83;;
22219;SDS011;11279;48.364;10.904;2022-09-09T00:33:30;7.40;;;3.40;;
22219;SDS011;11279;48.364;10.904;2022-09-09T00:34:31;5.27;;;2.80;;
22219;SDS011;11279;48.364;10.904;2022-09-09T00:35:34;6.65;;;3.25;;
22219;SDS011;11279;48.364;10.904;2022-09-09T00:36:37;6.57;;;3.20;;
22219;SDS011;11279;48.364;10.904;2022-09-09T00:37:38;7.55;;;3.17;;
22219;SDS011;11279;48.364;10.904;2022-09-09T00:38:45;6.85;;;3.05;;
22219;SDS011;11279;48.364;10.904;2022-09-09T00:39:48;6.15;;;2.88;;
22219;SDS011;11279;48.364;10.904;2022-09-09T00:40:56;5.47;;;3.03;;
22219;SDS011;11279;48.364;10.904;2022-09-09T00:42:23;6.55;;;3.13;;
22219;SDS011;11279;48.364;10.904;2022-09-09T00:44:33;7.57;;;2.85;;
22219;SDS011;11279;48.364;10.904;2022-09-09T00:46:56;8.88;;;3.17;;
22219;SDS011;11279;48.364;10.904;2022-09-09T00:48:06;5.38;;;3.03;;
22219;SDS011;11279;48.364;10.904;2022-09-09T00:49:22;6.85;;;3.33;;
22219;SDS011;11279;48.364;10.904;2022-09-09T00:50:47;5.50;;;2.90;;
22219;SDS011;11279;48.364;10.904;2022-09-09T00:53:18;9.13;;;3.03;;
22219;SDS011;11279;48.364;10.904;2022-09-09T00:54:36;9.20;;;3.28;;
22219;SDS011;11279;48.364;10.904;2022-09-09T00:55:49;5.50;;;2.80;;
22219;SDS011;11279;48.364;10.904;2022-09-09T00:57:04;5.82;;;3.00;;
22219;SDS011;11279;48.364;10.904;2022-09-09T00:58:13;7.18;;;3.33;;
22219;SDS011;11279;48.364;10.904;2022-09-09T00:59:40;5.63;;;2.80;;
22219;SDS011;11279;48.364;10.904;2022-09-09T01:02:31;6.07;;;2.78;;
22219;SDS011;11279;48.364;10.904;2022-09-09T01:03:46;4.88;;;2.78;;
22219;SDS011;11279;48.364;10.904;2022-09-09T01:04:51;7.55;;;3.30;;
22219;SDS011;11279;48.364;10.904;2022-09-09T01:06:02;4.70;;;2.90;;
22219;SDS011;11279;48.364;10.904;2022-09-09T01:07:09;5.22;;;2.67;;
22219;SDS011;11279;48.364;10.904;2022-09-09T01:11:00;6.80;;;3.10;;
22219;SDS011;11279;48.364;10.904;2022-09-09T01:12:15;5.78;;;3.10;;
22219;SDS011;11279;48.364;10.904;2022-09-09T01:13:23;5.55;;;3.13;;
22219;SDS011;11279;48.364;10.904;2022-09-09T01:14:29;8.75;;;3.10;;
22219;SDS011;11279;48.364;10.904;2022-09-09T01:15:34;3.97;;;2.55;;
22219;SDS011;11279;48.364;10.904;2022-09-09T01:16:34;8.23;;;3.07;;
22219;SDS011;11279;48.364;10.904;2022-09-09T01:18:45;5.47;;;2.90;;
22219;SDS011;11279;48.364;10.904;2022-09-09T01:19:52;9.73;;;3.20;;
22219;SDS011;11279;48.364;10.904;2022-09-09T01:22:53;6.00;;;2.80;;
22219;SDS011;11279;48.364;10.904;2022-09-09T01:24:15;6.70;;;2.70;;
22219;SDS011;11279;48.364;10.904;2022-09-09T01:25:28;8.02;;;3.28;;
22219;SDS011;11279;48.364;10.904;2022-09-09T01:27:37;4.30;;;2.60;;
22219;SDS011;11279;48.364;10.904;2022-09-09T01:28:37;7.10;;;3.30;;
22219;SDS011;11279;48.364;10.904;2022-09-09T01:29:39;5.50;;;3.03;;
22219;SDS011;11279;48.364;10.904;2022-09-09T01:30:40;7.40;;;3.00;;
22219;SDS011;11279;48.364;10.904;2022-09-09T01:31:58;5.00;;;2.60;;
22219;SDS011;11279;48.364;10.904;2022-09-09T01:33:03;5.53;;;2.67;;
22219;SDS011;11279;48.364;10.904;2022-09-09T01:34:09;6.60;;;3.00;;
22219;SDS011;11279;48.364;10.904;2022-09-09T01:35:13;5.57;;;3.13;;
22219;SDS011;11279;48.364;10.904;2022-09-09T01:36:21;8.15;;;3.30;;
22219;SDS011;11279;48.364;10.904;2022-09-09T01:37:26;3.40;;;2.70;;
22219;SDS011;11279;48.364;10.904;2022-09-09T01:38:27;5.63;;;3.10;;
22219;SDS011;11279;48.364;10.904;2022-09-09T01:39:28;7.80;;;2.78;;
22219;SDS011;11279;48.364;10.904;2022-09-09T01:40:28;6.43;;;2.93;;
22219;SDS011;11279;48.364;10.904;2022-09-09T01:41:29;6.87;;;2.90;;
22219;SDS011;11279;48.364;10.904;2022-09-09T01:42:29;6.07;;;2.90;;
22219;SDS011;11279;48.364;10.904;2022-09-09T01:43:30;5.77;;;3.00;;
22219;SDS011;11279;48.364;10.904;2022-09-09T01:44:30;10.53;;;3.20;;
22219;SDS011;11279;48.364;10.904;2022-09-09T01:45:31;7.10;;;2.50;;
22219;SDS011;11279;48.364;10.904;2022-09-09T01:46:32;4.50;;;2.87;;
22219;SDS011;11279;48.364;10.904;2022-09-09T01:47:33;5.60;;;3.07;;
22219;SDS011;11279;48.364;10.904;2022-09-09T01:48:33;4.27;;;2.90;;
22219;SDS011;11279;48.364;10.904;2022-09-09T01:49:34;6.17;;;3.13;;
22219;SDS011;11279;48.364;10.904;2022-09-09T01:50:34;5.17;;;2.90;;
22219;SDS011;11279;48.364;10.904;2022-09-09T01:51:36;5.73;;;3.20;;
22219;SDS011;11279;48.364;10.904;2022-09-09T01:52:36;7.88;;;3.30;;
22219;SDS011;11279;48.364;10.904;2022-09-09T01:53:37;5.53;;;2.73;;
22219;SDS011;11279;48.364;10.904;2022-09-09T01:54:39;7.13;;;3.05;;
22219;SDS011;11279;48.364;10.904;2022-09-09T01:55:40;6.53;;;2.70;;
22219;SDS011;11279;48.364;10.904;2022-09-09T02:00:36;6.40;;;3.13;;
22219;SDS011;11279;48.364;10.904;2022-09-09T02:01:45;8.43;;;3.42;;
22219;SDS011;11279;48.364;10.904;2022-09-09T02:04:01;5.50;;;3.42;;
22219;SDS011;11279;48.364;10.904;2022-09-09T02:05:27;5.88;;;3.17;;
22219;SDS011;11279;48.364;10.904;2022-09-09T02:06:36;6.78;;;2.97;;
22219;SDS011;11279;48.364;10.904;2022-09-09T02:07:40;4.80;;;3.03;;
22219;SDS011;11279;48.364;10.904;2022-09-09T02:08:50;5.90;;;3.03;;
22219;SDS011;11279;48.364;10.904;2022-09-09T02:09:57;5.68;;;3.15;;
22219;SDS011;11279;48.364;10.904;2022-09-09T02:11:13;5.95;;;3.33;;
22219;SDS011;11279;48.364;10.904;2022-09-09T02:12:15;6.05;;;3.35;;
22219;SDS011;11279;48.364;10.904;2022-09-09T02:13:17;6.57;;;3.10;;
22219;SDS011;11279;48.364;10.904;2022-09-09T02:14:23;3.88;;;3.20;;
22219;SDS011;11279;48.364;10.904;2022-09-09T02:15:28;6.13;;;2.88;;
22219;SDS011;11279;48.364;10.904;2022-09-09T02:16:50;5.22;;;3.00;;
22219;SDS011;11279;48.364;10.904;2022-09-09T02:17:54;5.78;;;2.70;;
22219;SDS011;11279;48.364;10.904;2022-09-09T02:20:07;5.43;;;3.00;;
22219;SDS011;11279;48.364;10.904;2022-09-09T02:21:09;4.18;;;3.22;;
22219;SDS011;11279;48.364;10.904;2022-09-09T02:22:11;6.10;;;2.90;;
22219;SDS011;11279;48.364;10.904;2022-09-09T02:23:12;6.80;;;3.63;;
22219;SDS011;11279;48.364;10.904;2022-09-09T02:24:13;5.07;;;3.30;;
22219;SDS011;11279;48.364;10.904;2022-09-09T02:25:15;3.58;;;2.72;;
22219;SDS011;11279;48.364;10.904;2022-09-09T02:26:18;5.03;;;3.30;;
22219;SDS011;11279;48.364;10.904;2022-09-09T02:27:21;5.05;;;3.03;;
22219;SDS011;11279;48.364;10.904;2022-09-09T02:28:22;5.45;;;3.03;;
22219;SDS011;11279;48.364;10.904;2022-09-09T02:29:27;8.10;;;3.35;;
22219;SDS011;11279;48.364;10.904;2022-09-09T02:30:29;4.32;;;3.00;;
22219;SDS011;11279;48.364;10.904;2022-09-09T02:31:30;6.80;;;3.27;;
22219;SDS011;11279;48.364;10.904;2022-09-09T02:32:32;4.65;;;2.95;;
22219;SDS011;11279;48.364;10.904;2022-09-09T02:33:35;5.70;;;3.22;;
22219;SDS011;11279;48.364;10.904;2022-09-09T02:34:45;4.90;;;3.20;;
22219;SDS011;11279;48.364;10.904;2022-09-09T02:35:51;6.85;;;3.90;;
22219;SDS011;11279;48.364;10.904;2022-09-09T02:36:53;6.60;;;3.65;;
22219;SDS011;11279;48.364;10.904;2022-09-09T02:37:55;6.00;;;3.33;;
22219;SDS011;11279;48.364;10.904;2022-09-09T02:38:59;5.97;;;3.45;;
22219;SDS011;11279;48.364;10.904;2022-09-09T02:40:00;5.60;;;3.23;;
22219;SDS011;11279;48.364;10.904;2022-09-09T02:41:02;5.20;;;3.30;;
22219;SDS011;11279;48.364;10.904;2022-09-09T02:42:03;6.07;;;3.57;;
22219;SDS011;11279;48.364;10.904;2022-09-09T02:43:04;5.80;;;3.38;;
22219;SDS011;11279;48.364;10.904;2022-09-09T02:44:16;6.68;;;3.22;;
22219;SDS011;11279;48.364;10.904;2022-09-09T02:45:19;6.25;;;3.50;;
22219;SDS011;11279;48.364;10.904;2022-09-09T02:49:15;6.25;;;3.70;;
22219;SDS011;11279;48.364;10.904;2022-09-09T02:54:27;4.45;;;3.10;;
22219;SDS011;11279;48.364;10.904;2022-09-09T02:55:38;6.30;;;3.45;;
22219;SDS011;11279;48.364;10.904;2022-09-09T02:56:46;4.22;;;3.05;;
22219;SDS011;11279;48.364;10.904;2022-09-09T02:57:50;6.55;;;3.35;;
22219;SDS011;11279;48.364;10.904;2022-09-09T02:58:52;5.57;;;3.55;;
22219;SDS011;11279;48.364;10.904;2022-09-09T02:59:52;6.90;;;3.70;;
22219;SDS011;11279;48.364;10.904;2022-09-09T03:00:53;8.20;;;3.30;;
22219;SDS011;11279;48.364;10.904;2022-09-09T03:01:53;5.33;;;3.27;;
22219;SDS011;11279;48.364;10.904;2022-09-09T03:02:54;5.97;;;3.40;;
22219;SDS011;11279;48.364;10.904;2022-09-09T03:03:54;8.37;;;3.57;;
22219;SDS011;11279;48.364;10.904;2022-09-09T03:04:55;7.77;;;3.27;;
22219;SDS011;11279;48.364;10.904;2022-09-09T03:05:55;6.63;;;3.37;;
22219;SDS011;11279;48.364;10.904;2022-09-09T03:06:57;6.22;;;3.15;;
22219;SDS011;11279;48.364;10.904;2022-09-09T03:07:58;6.47;;;3.40;;
22219;SDS011;11279;48.364;10.904;2022-09-09T03:08:59;4.13;;;3.10;;
22219;SDS011;11279;48.364;10.904;2022-09-09T03:10:02;5.38;;;2.80;;
22219;SDS011;11279;48.364;10.904;2022-09-09T03:11:02;6.93;;;3.40;;
22219;SDS011;11279;48.364;10.904;2022-09-09T03:12:03;9.43;;;3.60;;
22219;SDS011;11279;48.364;10.904;2022-09-09T03:13:04;5.93;;;3.38;;
22219;SDS011;11279;48.364;10.904;2022-09-09T03:14:05;6.35;;;3.47;;
22219;SDS011;11279;48.364;10.904;2022-09-09T03:15:06;8.17;;;3.30;;
22219;SDS011;11279;48.364;10.904;2022-09-09T03:16:07;6.10;;;3.15;;
22219;SDS011;11279;48.364;10.904;2022-09-09T03:17:07;6.40;;;3.10;;
22219;SDS011;11279;48.364;10.904;2022-09-09T03:18:09;5.40;;;2.90;;
22219;SDS011;11279;48.364;10.904;2022-09-09T03:19:09;4.87;;;3.40;;
22219;SDS011;11279;48.364;10.904;2022-09-09T03:20:10;7.53;;;3.17;;
22219;SDS011;11279;48.364;10.904;2022-09-09T03:21:10;6.23;;;3.40;;
22219;SDS011;11279;48.364;10.904;2022-09-09T03:22:11;6.40;;;3.27;;
22219;SDS011;11279;48.364;10.904;2022-09-09T03:23:13;7.60;;;3.03;;
22219;SDS011;11279;48.364;10.904;2022-09-09T03:24:14;7.40;;;3.40;;
22219;SDS011;11279;48.364;10.904;2022-09-09T03:25:15;4.53;;;2.90;;
22219;SDS011;11279;48.364;10.904;2022-09-09T03:26:15;4.30;;;2.80;;
22219;SDS011;11279;48.364;10.904;2022-09-09T03:27:16;6.33;;;3.67;;
22219;SDS011;11279;48.364;10.904;2022-09-09T03:28:17;5.75;;;3.15;;
22219;SDS011;11279;48.364;10.904;2022-09-09T03:29:18;6.32;;;3.22;;
22219;SDS011;11279;48.364;10.904;2022-09-09T03:30:18;6.93;;;3.20;;
22219;SDS011;11279;48.364;10.904;2022-09-09T03:31:19;8.30;;;3.13;;
22219;SDS011;11279;48.364;10.904;2022-09-09T03:32:19;5.80;;;3.60;;
22219;SDS011;11279;48.364;10.904;2022-09-09T03:33:22;5.45;;;3.50;;
22219;SDS011;11279;48.364;10.904;2022-09-09T03:34:22;7.53;;;3.30;;
22219;SDS011;11279;48.364;10.904;2022-09-09T03:35:23;7.40;;;3.50;;
22219;SDS011;11279;48.364;10.904;2022-09-09T03:36:24;7.20;;;3.30;;
22219;SDS011;11279;48.364;10.904;2022-09-09T03:37:26;5.55;;;3.50;;
22219;SDS011;11279;48.364;10.904;2022-09-09T03:38:27;4.73;;;3.40;;
22219;SDS011;11279;48.364;10.904;2022-09-09T03:39:28;8.82;;;3.42;;
22219;SDS011;11279;48.364;10.904;2022-09-09T03:40:29;5.63;;;3.23;;
22219;SDS011;11279;48.364;10.904;2022-09-09T03:41:31;7.03;;;3.60;;
22219;SDS011;11279;48.364;10.904;2022-09-09T03:42:31;7.67;;;3.40;;
22219;SDS011;11279;48.364;10.904;2022-09-09T03:43:31;5.10;;;3.23;;
22219;SDS011;11279;48.364;10.904;2022-09-09T03:44:32;5.23;;;3.23;;
22219;SDS011;11279;48.364;10.904;2022-09-09T03:45:33;7.20;;;3.20;;
22219;SDS011;11279;48.364;10.904;2022-09-09T03:46:33;5.67;;;3.40;;
22219;SDS011;11279;48.364;10.904;2022-09-09T03:47:33;7.47;;;3.80;;
22219;SDS011;11279;48.364;10.904;2022-09-09T03:48:34;7.97;;;3.53;;
22219;SDS011;11279;48.364;10.904;2022-09-09T03:49:34;6.80;;;3.30;;
22219;SDS011;11279;48.364;10.904;2022-09-09T03:50:35;8.07;;;4.00;;
22219;SDS011;11279;48.364;10.904;2022-09-09T03:51:35;7.50;;;3.50;;
22219;SDS011;11279;48.364;10.904;2022-09-09T03:52:37;6.05;;;3.63;;
22219;SDS011;11279;48.364;10.904;2022-09-09T03:53:38;7.10;;;3.55;;
22219;SDS011;11279;48.364;10.904;2022-09-09T03:54:39;5.10;;;3.08;;
22219;SDS011;11279;48.364;10.904;2022-09-09T03:55:47;5.70;;;3.22;;
22219;SDS011;11279;48.364;10.904;2022-09-09T03:56:49;5.28;;;3.28;;
22219;SDS011;11279;48.364;10.904;2022-09-09T03:57:49;5.43;;;3.00;;
22219;SDS011;11279;48.364;10.904;2022-09-09T03:58:49;6.40;;;3.60;;
22219;SDS011;11279;48.364;10.904;2022-09-09T03:59:50;5.83;;;3.30;;
22219;SDS011;11279;48.364;10.904;2022-09-09T04:00:54;7.67;;;3.47;;
22219;SDS011;11279;48.364;10.904;2022-09-09T04:01:55;7.25;;;3.65;;
22219;SDS011;11279;48.364;10.904;2022-09-09T04:02:57;7.25;;;3.83;;
22219;SDS011;11279;48.364;10.904;2022-09-09T04:03:57;9.07;;;3.57;;
22219;SDS011;11279;48.364;10.904;2022-09-09T04:04:58;7.80;;;3.50;;
22219;SDS011;11279;48.364;10.904;2022-09-09T04:06:00;7.38;;;3.47;;
22219;SDS011;11279;48.364;10.904;2022-09-09T04:07:03;4.68;;;3.25;;
22219;SDS011;11279;48.364;10.904;2022-09-09T04:08:06;6.35;;;3.30;;
22219;SDS011;11279;48.364;10.904;2022-09-09T04:09:07;7.03;;;3.70;;
22219;SDS011;11279;48.364;10.904;2022-09-09T04:10:07;7.00;;;3.57;;
22219;SDS011;11279;48.364;10.904;2022-09-09T04:11:08;4.90;;;3.17;;
22219;SDS011;11279;48.364;10.904;2022-09-09T04:12:09;6.68;;;3.05;;
22219;SDS011;11279;48.364;10.904;2022-09-09T04:13:11;7.20;;;3.30;;
22219;SDS011;11279;48.364;10.904;2022-09-09T04:14:12;5.07;;;3.53;;
22219;SDS011;11279;48.364;10.904;2022-09-09T04:15:13;5.70;;;3.20;;
22219;SDS011;11279;48.364;10.904;2022-09-09T04:16:13;8.07;;;3.80;;
22219;SDS011;11279;48.364;10.904;2022-09-09T04:17:14;5.97;;;3.25;;
22219;SDS011;11279;48.364;10.904;2022-09-09T04:18:15;7.27;;;3.20;;
22219;SDS011;11279;48.364;10.904;2022-09-09T04:19:15;4.97;;;2.97;;
22219;SDS011;11279;48.364;10.904;2022-09-09T04:20:16;6.00;;;3.30;;
22219;SDS011;11279;48.364;10.904;2022-09-09T04:21:16;5.30;;;3.27;;
22219;SDS011;11279;48.364;10.904;2022-09-09T04:22:17;5.23;;;3.40;;
22219;SDS011;11279;48.364;10.904;2022-09-09T04:23:18;6.23;;;3.33;;
22219;SDS011;11279;48.364;10.904;2022-09-09T04:24:20;5.45;;;3.33;;
22219;SDS011;11279;48.364;10.904;2022-09-09T04:25:21;8.13;;;3.33;;
22219;SDS011;11279;48.364;10.904;2022-09-09T04:26:22;4.47;;;2.60;;
22219;SDS011;11279;48.364;10.904;2022-09-09T04:27:22;8.33;;;3.13;;
22219;SDS011;11279;48.364;10.904;2022-09-09T04:28:24;5.50;;;3.20;;
22219;SDS011;11279;48.364;10.904;2022-09-09T04:29:26;6.32;;;3.20;;
22219;SDS011;11279;48.364;10.904;2022-09-09T04:30:26;5.33;;;2.80;;
22219;SDS011;11279;48.364;10.904;2022-09-09T04:31:27;8.90;;;3.00;;
22219;SDS011;11279;48.364;10.904;2022-09-09T04:32:28;6.93;;;2.90;;
22219;SDS011;11279;48.364;10.904;2022-09-09T04:33:28;6.20;;;2.80;;
22219;SDS011;11279;48.364;10.904;2022-09-09T04:34:28;10.73;;;2.90;;
22219;SDS011;11279;48.364;10.904;2022-09-09T04:35:30;4.28;;;2.83;;
22219;SDS011;11279;48.364;10.904;2022-09-09T04:36:31;7.07;;;2.80;;
22219;SDS011;11279;48.364;10.904;2022-09-09T04:37:32;7.53;;;3.35;;
22219;SDS011;11279;48.364;10.904;2022-09-09T04:38:32;3.87;;;2.90;;
22219;SDS011;11279;48.364;10.904;2022-09-09T04:39:33;8.23;;;3.13;;
22219;SDS011;11279;48.364;10.904;2022-09-09T04:40:33;8.03;;;3.10;;
22219;SDS011;11279;48.364;10.904;2022-09-09T04:41:34;7.60;;;2.90;;
22219;SDS011;11279;48.364;10.904;2022-09-09T04:42:36;6.55;;;2.80;;
22219;SDS011;11279;48.364;10.904;2022-09-09T04:43:37;5.63;;;3.07;;
22219;SDS011;11279;48.364;10.904;2022-09-09T04:44:37;8.90;;;3.20;;
22219;SDS011;11279;48.364;10.904;2022-09-09T04:45:38;6.67;;;3.03;;
22219;SDS011;11279;48.364;10.904;2022-09-09T04:46:40;4.07;;;2.90;;
22219;SDS011;11279;48.364;10.904;2022-09-09T04:47:41;6.78;;;3.08;;
22219;SDS011;11279;48.364;10.904;2022-09-09T04:48:42;6.72;;;2.88;;
22219;SDS011;11279;48.364;10.904;2022-09-09T04:49:43;5.35;;;3.03;;
22219;SDS011;11279;48.364;10.904;2022-09-09T04:50:44;4.97;;;2.93;;
22219;SDS011;11279;48.364;10.904;2022-09-09T04:51:44;7.97;;;3.23;;
22219;SDS011;11279;48.364;10.904;2022-09-09T04:52:47;5.40;;;3.10;;
22219;SDS011;11279;48.364;10.904;2022-09-09T04:53:47;7.90;;;2.97;;
22219;SDS011;11279;48.364;10.904;2022-09-09T04:54:48;7.82;;;3.10;;
22219;SDS011;11279;48.364;10.904;2022-09-09T04:55:49;7.87;;;3.00;;
22219;SDS011;11279;48.364;10.904;2022-09-09T04:56:50;5.07;;;2.63;;
22219;SDS011;11279;48.364;10.904;2022-09-09T04:57:50;6.65;;;2.75;;
22219;SDS011;11279;48.364;10.904;2022-09-09T04:58:51;6.77;;;3.10;;
22219;SDS011;11279;48.364;10.904;2022-09-09T04:59:51;5.70;;;2.50;;
22219;SDS011;11279;48.364;10.904;2022-09-09T05:00:52;4.40;;;3.00;;
22219;SDS011;11279;48.364;10.904;2022-09-09T05:01:52;6.27;;;2.80;;
22219;SDS011;11279;48.364;10.904;2022-09-09T05:02:55;6.07;;;2.90;;
22219;SDS011;11279;48.364;10.904;2022-09-09T05:03:55;8.63;;;3.20;;
22219;SDS011;11279;48.364;10.904;2022-09-09T05:04:56;5.57;;;2.80;;
22219;SDS011;11279;48.364;10.904;2022-09-09T05:06:03;8.70;;;3.20;;
22219;SDS011;11279;48.364;10.904;2022-09-09T05:07:04;9.07;;;2.88;;
22219;SDS011;11279;48.364;10.904;2022-09-09T05:08:05;5.77;;;3.13;;
22219;SDS011;11279;48.364;10.904;2022-09-09T05:09:07;5.68;;;2.40;;
22219;SDS011;11279;48.364;10.904;2022-09-09T05:10:08;4.65;;;2.83;;
22219;SDS011;11279;48.364;10.904;2022-09-09T05:11:29;8.07;;;3.22;;
22219;SDS011;11279;48.364;10.904;2022-09-09T05:12:32;7.53;;;2.72;;
22219;SDS011;11279;48.364;10.904;2022-09-09T05:13:32;4.80;;;2.57;;
22219;SDS011;11279;48.364;10.904;2022-09-09T05:14:33;5.27;;;2.83;;
22219;SDS011;11279;48.364;10.904;2022-09-09T05:15:33;6.67;;;3.03;;
22219;SDS011;11279;48.364;10.904;2022-09-09T05:16:34;7.40;;;2.93;;
22219;SDS011;11279;48.364;10.904;2022-09-09T05:17:34;6.50;;;2.77;;
22219;SDS011;11279;48.364;10.904;2022-09-09T05:18:35;9.80;;;2.87;;
22219;SDS011;11279;48.364;10.904;2022-09-09T05:19:35;4.47;;;2.63;;
22219;SDS011;11279;48.364;10.904;2022-09-09T05:20:35;8.30;;;3.27;;
22219;SDS011;11279;48.364;10.904;2022-09-09T05:21:36;6.27;;;2.77;;
22219;SDS011;11279;48.364;10.904;2022-09-09T05:22:37;3.23;;;2.23;;
22219;SDS011;11279;48.364;10.904;2022-09-09T05:23:37;7.27;;;2.93;;
22219;SDS011;11279;48.364;10.904;2022-09-09T05:24:38;5.67;;;2.43;;
22219;SDS011;11279;48.364;10.904;2022-09-09T05:25:39;5.07;;;2.43;;
22219;SDS011;11279;48.364;10.904;2022-09-09T05:26:41;7.82;;;3.08;;
22219;SDS011;11279;48.364;10.904;2022-09-09T05:27:42;6.88;;;3.08;;
22219;SDS011;11279;48.364;10.904;2022-09-09T05:28:43;6.03;;;2.63;;
22219;SDS011;11279;48.364;10.904;2022-09-09T05:29:44;5.83;;;2.80;;
22219;SDS011;11279;48.364;10.904;2022-09-09T05:30:44;4.93;;;2.87;;
22219;SDS011;11279;48.364;10.904;2022-09-09T05:31:45;9.20;;;3.10;;
22219;SDS011;11279;48.364;10.904;2022-09-09T05:32:47;9.38;;;2.88;;
22219;SDS011;11279;48.364;10.904;2022-09-09T05:33:48;6.15;;;2.92;;
22219;SDS011;11279;48.364;10.904;2022-09-09T05:34:51;6.13;;;2.80;;
22219;SDS011;11279;48.364;10.904;2022-09-09T05:35:57;3.57;;;2.27;;
22219;SDS011;11279;48.364;10.904;2022-09-09T05:36:59;5.20;;;2.63;;
22219;SDS011;11279;48.364;10.904;2022-09-09T05:37:59;7.03;;;2.80;;
22219;SDS011;11279;48.364;10.904;2022-09-09T05:39:00;4.82;;;2.50;;
22219;SDS011;11279;48.364;10.904;2022-09-09T05:40:01;6.67;;;2.53;;
22219;SDS011;11279;48.364;10.904;2022-09-09T05:41:02;5.30;;;2.73;;
22219;SDS011;11279;48.364;10.904;2022-09-09T05:42:03;5.82;;;2.97;;
22219;SDS011;11279;48.364;10.904;2022-09-09T05:43:04;3.90;;;2.60;;
22219;SDS011;11279;48.364;10.904;2022-09-09T05:44:04;6.00;;;2.67;;
22219;SDS011;11279;48.364;10.904;2022-09-09T05:45:06;4.05;;;2.55;;
22219;SDS011;11279;48.364;10.904;2022-09-09T05:46:08;8.45;;;2.72;;
22219;SDS011;11279;48.364;10.904;2022-09-09T05:47:12;5.95;;;2.75;;
22219;SDS011;11279;48.364;10.904;2022-09-09T05:48:13;5.40;;;2.40;;
22219;SDS011;11279;48.364;10.904;2022-09-09T05:49:15;4.82;;;2.38;;
22219;SDS011;11279;48.364;10.904;2022-09-09T05:50:15;7.20;;;2.53;;
22219;SDS011;11279;48.364;10.904;2022-09-09T05:51:17;5.93;;;2.70;;
22219;SDS011;11279;48.364;10.904;2022-09-09T05:52:22;7.30;;;3.22;;
22219;SDS011;11279;48.364;10.904;2022-09-09T05:53:23;4.22;;;2.20;;
22219;SDS011;11279;48.364;10.904;2022-09-09T05:54:24;6.10;;;2.05;;
22219;SDS011;11279;48.364;10.904;2022-09-09T05:55:25;5.00;;;2.17;;
22219;SDS011;11279;48.364;10.904;2022-09-09T05:56:27;7.83;;;1.93;;
22219;SDS011;11279;48.364;10.904;2022-09-09T05:57:28;6.45;;;2.10;;
22219;SDS011;11279;48.364;10.904;2022-09-09T05:58:29;3.33;;;2.00;;
22219;SDS011;11279;48.364;10.904;2022-09-09T05:59:30;5.78;;;2.20;;
22219;SDS011;11279;48.364;10.904;2022-09-09T06:00:32;6.78;;;2.13;;
22219;SDS011;11279;48.364;10.904;2022-09-09T06:01:33;5.23;;;1.87;;
22219;SDS011;11279;48.364;10.904;2022-09-09T06:02:35;5.60;;;2.25;;
22219;SDS011;11279;48.364;10.904;2022-09-09T06:03:38;6.00;;;1.90;;
22219;SDS011;11279;48.364;10.904;2022-09-09T06:04:39;8.60;;;2.38;;
22219;SDS011;11279;48.364;10.904;2022-09-09T06:05:40;7.17;;;2.00;;
22219;SDS011;11279;48.364;10.904;2022-09-09T06:06:40;3.70;;;1.73;;
22219;SDS011;11279;48.364;10.904;2022-09-09T06:07:41;4.28;;;2.08;;
22219;SDS011;11279;48.364;10.904;2022-09-09T06:08:43;3.92;;;1.65;;
22219;SDS011;11279;48.364;10.904;2022-09-09T06:09:45;4.03;;;1.75;;
22219;SDS011;11279;48.364;10.904;2022-09-09T06:10:45;4.87;;;1.90;;
22219;SDS011;11279;48.364;10.904;2022-09-09T06:11:46;4.00;;;1.90;;
22219;SDS011;11279;48.364;10.904;2022-09-09T06:12:46;3.97;;;1.60;;
22219;SDS011;11279;48.364;10.904;2022-09-09T06:13:47;6.13;;;2.13;;
22219;SDS011;11279;48.364;10.904;2022-09-09T06:14:47;3.75;;;2.10;;
22219;SDS011;11279;48.364;10.904;2022-09-09T06:15:51;6.90;;;1.80;;
22219;SDS011;11279;48.364;10.904;2022-09-09T06:16:52;3.85;;;1.90;;
22219;SDS011;11279;48.364;10.904;2022-09-09T06:17:55;3.10;;;1.90;;
22219;SDS011;11279;48.364;10.904;2022-09-09T06:18:56;6.10;;;1.83;;
22219;SDS011;11279;48.364;10.904;2022-09-09T06:19:57;4.90;;;1.90;;
22219;SDS011;11279;48.364;10.904;2022-09-09T06:21:02;4.30;;;2.10;;
22219;SDS011;11279;48.364;10.904;2022-09-09T06:22:05;3.90;;;2.38;;
22219;SDS011;11279;48.364;10.904;2022-09-09T06:23:05;4.30;;;1.73;;
22219;SDS011;11279;48.364;10.904;2022-09-09T06:24:06;5.03;;;1.70;;
22219;SDS011;11279;48.364;10.904;2022-09-09T06:25:08;4.70;;;1.90;;
22219;SDS011;11279;48.364;10.904;2022-09-09T06:26:09;7.72;;;2.13;;
22219;SDS011;11279;48.364;10.904;2022-09-09T06:27:11;8.52;;;2.00;;
22219;SDS011;11279;48.364;10.904;2022-09-09T06:28:13;3.88;;;1.85;;
22219;SDS011;11279;48.364;10.904;2022-09-09T06:29:14;3.73;;;1.73;;
22219;SDS011;11279;48.364;10.904;2022-09-09T06:30:14;6.03;;;2.27;;
22219;SDS011;11279;48.364;10.904;2022-09-09T06:31:15;3.73;;;1.97;;
22219;SDS011;11279;48.364;10.904;2022-09-09T06:32:17;3.25;;;1.90;;
22219;SDS011;11279;48.364;10.904;2022-09-09T06:33:17;4.77;;;1.77;;
22219;SDS011;11279;48.364;10.904;2022-09-09T06:34:18;7.17;;;2.10;;
22219;SDS011;11279;48.364;10.904;2022-09-09T06:35:18;3.87;;;1.97;;
22219;SDS011;11279;48.364;10.904;2022-09-09T06:36:20;5.87;;;2.00;;
22219;SDS011;11279;48.364;10.904;2022-09-09T06:37:21;10.00;;;2.35;;
22219;SDS011;11279;48.364;10.904;2022-09-09T06:38:24;7.55;;;2.50;;
22219;SDS011;11279;48.364;10.904;2022-09-09T06:39:24;6.17;;;2.20;;
22219;SDS011;11279;48.364;10.904;2022-09-09T06:40:25;6.57;;;2.35;;
22219;SDS011;11279;48.364;10.904;2022-09-09T06:41:27;6.13;;;1.97;;
22219;SDS011;11279;48.364;10.904;2022-09-09T06:42:29;7.50;;;2.05;;
22219;SDS011;11279;48.364;10.904;2022-09-09T06:43:30;5.90;;;2.03;;
22219;SDS011;11279;48.364;10.904;2022-09-09T06:44:31;8.47;;;2.43;;